createdAt,value
2022-09-21T00:01:07.240Z,82.64
2022-09-21T00:03:35.184Z,82.91
2022-09-21T00:06:03.572Z,82.69
2022-09-21T00:08:31.091Z,82.21
2022-09-21T00:10:58.747Z,82.78
2022-09-21T00:13:26.183Z,83.00
2022-09-21T00:15:53.392Z,83.44
2022-09-21T00:18:22.799Z,83.23
2022-09-21T00:20:50.206Z,82.65
2022-09-21T00:23:17.387Z,83.12
2022-09-21T00:25:44.905Z,83.79
2022-09-21T00:28:12.219Z,84.09
2022-09-21T00:30:39.522Z,83.88
2022-09-21T00:33:07.178Z,84.81
2022-09-21T00:35:35.880Z,84.48
2022-09-21T00:38:03.617Z,84.08
2022-09-21T00:40:32.282Z,84.46
2022-09-21T00:43:13.474Z,83.72
2022-09-21T00:45:41.821Z,83.81
2022-09-21T00:48:09.605Z,83.23
2022-09-21T00:50:44.464Z,82.98
2022-09-21T00:53:12.250Z,83.30
2022-09-21T00:55:43.085Z,83.42
2022-09-21T00:58:16.941Z,83.62
2022-09-21T01:00:45.414Z,83.97
2022-09-21T01:03:13.591Z,83.41
2022-09-21T01:05:42.223Z,83.42
2022-09-21T01:08:12.234Z,83.07
2022-09-21T01:10:49.961Z,83.34
2022-09-21T01:13:29.427Z,83.96
2022-09-21T01:16:04.254Z,83.35
2022-09-21T01:18:36.783Z,83.03
2022-09-21T01:21:20.631Z,82.88
2022-09-21T01:24:22.758Z,82.41
2022-09-21T01:27:21.918Z,83.37
2022-09-21T01:29:55.358Z,83.48
2022-09-21T01:32:27.110Z,83.81
2022-09-21T01:35:00.972Z,83.68
2022-09-21T01:37:36.174Z,82.83
2022-09-21T01:40:09.783Z,82.84
2022-09-21T01:42:39.963Z,82.90
2022-09-21T01:45:12.534Z,82.89
2022-09-21T01:47:41.370Z,82.60
2022-09-21T01:50:11.939Z,82.56
2022-09-21T01:52:47.175Z,82.30
2022-09-21T01:55:18.769Z,81.95
2022-09-21T01:57:58.227Z,81.90
2022-09-21T02:00:32.153Z,82.64
2022-09-21T02:03:04.251Z,82.71
2022-09-21T02:05:32.215Z,82.15
2022-09-21T02:08:00.601Z,81.90
2022-09-21T02:10:32.779Z,82.26
2022-09-21T02:13:04.453Z,82.71
2022-09-21T02:15:46.504Z,82.92
2022-09-21T02:18:24.645Z,82.82
2022-09-21T02:20:56.896Z,82.83
2022-09-21T02:23:30.318Z,82.40
2022-09-21T02:26:03.417Z,83.29
2022-09-21T02:28:39.991Z,83.97
2022-09-21T02:31:16.080Z,84.35
2022-09-21T02:33:52.011Z,85.06
2022-09-21T02:36:26.484Z,84.84
2022-09-21T02:38:57.178Z,84.72
2022-09-21T02:41:29.205Z,84.48
2022-09-21T02:44:00.149Z,85.05
2022-09-21T02:46:33.377Z,84.75
2022-09-21T02:49:04.871Z,85.36
2022-09-21T02:51:36.786Z,85.25
2022-09-21T02:54:07.915Z,84.93
2022-09-21T02:56:36.805Z,85.56
2022-09-21T02:59:06.297Z,85.53
2022-09-21T03:01:36.122Z,85.57
2022-09-21T03:04:03.401Z,84.93
2022-09-21T03:06:30.594Z,85.04
2022-09-21T03:08:58.181Z,85.21
2022-09-21T03:11:25.514Z,85.03
2022-09-21T03:13:52.984Z,85.30
2022-09-21T03:16:20.697Z,84.88
2022-09-21T03:18:49.373Z,84.68
2022-09-21T03:21:16.835Z,84.33
2022-09-21T03:23:44.507Z,84.38
2022-09-21T03:26:11.633Z,84.20
2022-09-21T03:28:39.039Z,83.77
2022-09-21T03:31:06.828Z,84.19
2022-09-21T03:33:36.590Z,83.99
2022-09-21T03:36:05.700Z,84.20
2022-09-21T03:38:33.222Z,84.94
2022-09-21T03:41:00.530Z,85.17
2022-09-21T03:43:27.828Z,85.86
2022-09-21T03:45:55.434Z,85.42
2022-09-21T03:48:22.700Z,86.05
2022-09-21T03:50:50.266Z,86.76
2022-09-21T03:53:19.543Z,86.27
2022-09-21T03:55:46.823Z,86.34
2022-09-21T03:58:13.964Z,86.50
2022-09-21T04:00:41.701Z,86.60
2022-09-21T04:03:09.048Z,85.75
2022-09-21T04:05:36.324Z,85.63
2022-09-21T04:08:04.054Z,86.04
2022-09-21T04:10:32.728Z,85.57
2022-09-21T04:13:00.897Z,86.18
2022-09-21T04:15:28.970Z,86.48
2022-09-21T04:17:56.684Z,86.35
2022-09-21T04:20:24.193Z,86.55
2022-09-21T04:22:51.685Z,86.59
2022-09-21T04:25:20.609Z,86.82
2022-09-21T04:27:49.305Z,85.77
2022-09-21T04:30:17.239Z,85.66
2022-09-21T04:32:44.891Z,85.71
2022-09-21T04:35:12.142Z,85.71
2022-09-21T04:37:40.120Z,85.72
2022-09-21T04:40:08.468Z,85.06
2022-09-21T04:42:35.869Z,85.26
2022-09-21T04:45:05.607Z,85.40
2022-09-21T04:47:32.854Z,85.35
2022-09-21T04:50:00.173Z,85.31
2022-09-21T04:52:27.793Z,85.61
2022-09-21T04:54:55.294Z,85.88
2022-09-21T04:57:22.603Z,86.22
2022-09-21T04:59:50.389Z,85.80
2022-09-21T05:02:19.363Z,85.96
2022-09-21T05:04:50.699Z,85.96
2022-09-21T05:07:18.853Z,85.57
2022-09-21T05:09:46.187Z,85.04
2022-09-21T05:12:13.494Z,84.89
2022-09-21T05:14:41.481Z,85.56
2022-09-21T05:17:08.952Z,85.00
2022-09-21T05:19:37.712Z,84.96
2022-09-21T05:22:05.419Z,84.88
2022-09-21T05:24:32.852Z,84.96
2022-09-21T05:27:00.547Z,85.14
2022-09-21T05:29:29.035Z,85.42
2022-09-21T05:32:01.600Z,85.79
2022-09-21T05:34:54.516Z,85.31
2022-09-21T05:37:40.951Z,85.18
2022-09-21T05:40:11.509Z,85.02
2022-09-21T05:42:39.401Z,85.06
2022-09-21T05:45:08.298Z,85.45
2022-09-21T05:47:39.621Z,85.82
2022-09-21T05:50:24.465Z,85.76
2022-09-21T05:53:04.952Z,86.02
2022-09-21T05:55:41.252Z,84.84
2022-09-21T05:58:21.416Z,85.57
2022-09-21T06:01:03.997Z,85.62
2022-09-21T06:03:33.445Z,85.55
2022-09-21T06:06:00.602Z,85.37
2022-09-21T06:08:29.503Z,85.30
2022-09-21T06:10:57.244Z,85.14
2022-09-21T06:13:24.762Z,84.93
2022-09-21T06:15:52.422Z,84.80
2022-09-21T06:18:20.333Z,84.49
2022-09-21T06:20:47.659Z,84.15
2022-09-21T06:23:15.550Z,83.30
2022-09-21T06:25:44.679Z,82.80
2022-09-21T06:28:13.105Z,82.27
2022-09-21T06:30:40.958Z,82.49
2022-09-21T06:33:09.001Z,81.63
2022-09-21T06:35:37.040Z,83.14
2022-09-21T06:38:06.887Z,82.44
2022-09-21T06:40:36.453Z,82.04
2022-09-21T06:43:05.706Z,82.11
2022-09-21T06:45:33.531Z,82.36
2022-09-21T06:48:01.512Z,81.74
2022-09-21T06:50:28.888Z,81.60
2022-09-21T06:52:56.230Z,81.67
2022-09-21T06:55:23.945Z,81.48
2022-09-21T06:57:51.325Z,82.11
2022-09-21T07:00:20.176Z,82.25
2022-09-21T07:02:47.744Z,82.24
2022-09-21T07:05:15.160Z,80.66
2022-09-21T07:07:42.557Z,80.08
2022-09-21T07:10:15.760Z,78.71
2022-09-21T07:12:45.742Z,78.75
2022-09-21T07:15:13.332Z,78.91
2022-09-21T07:17:42.125Z,79.24
2022-09-21T07:20:09.646Z,79.48
2022-09-21T07:22:37.967Z,79.67
2022-09-21T07:25:06.284Z,78.08
2022-09-21T07:27:34.063Z,78.54
2022-09-21T07:30:01.616Z,78.53
2022-09-21T07:32:29.152Z,78.38
2022-09-21T07:34:57.888Z,78.72
2022-09-21T07:37:26.362Z,78.16
2022-09-21T07:39:54.099Z,78.33
2022-09-21T07:42:21.980Z,77.96
2022-09-21T07:44:50.932Z,78.17
2022-09-21T07:47:18.453Z,77.69
2022-09-21T07:49:45.727Z,77.30
2022-09-21T07:52:15.252Z,77.92
2022-09-21T07:54:42.629Z,77.64
2022-09-21T07:57:09.937Z,78.47
2022-09-21T07:59:37.925Z,77.69
2022-09-21T08:02:05.433Z,78.71
2022-09-21T08:04:32.982Z,78.28
2022-09-21T08:07:00.734Z,76.91
2022-09-21T08:09:29.375Z,77.07
2022-09-21T08:11:56.766Z,77.02
2022-09-21T08:14:26.481Z,77.49
2022-09-21T08:16:54.470Z,77.78
2022-09-21T08:19:21.944Z,77.92
2022-09-21T08:21:53.529Z,77.52
2022-09-21T08:24:23.819Z,77.61
2022-09-21T08:26:52.928Z,77.21
2022-09-21T08:29:20.276Z,76.57
2022-09-21T08:31:47.636Z,76.47
2022-09-21T08:34:15.272Z,77.01
2022-09-21T08:36:42.713Z,77.15
2022-09-21T08:39:10.055Z,76.10
2022-09-21T08:41:59.309Z,74.83
2022-09-21T08:44:32.757Z,75.48
2022-09-21T08:47:06.644Z,75.00
2022-09-21T08:49:38.578Z,74.78
2022-09-21T08:52:16.259Z,74.88
2022-09-21T08:54:49.395Z,74.40
2022-09-21T08:57:20.522Z,74.14
2022-09-21T08:59:49.803Z,74.28
2022-09-21T09:02:38.459Z,73.69
2022-09-21T09:05:22.522Z,74.12
2022-09-21T09:08:07.526Z,74.47
2022-09-21T09:10:38.595Z,75.22
2022-09-21T09:13:25.408Z,74.33
2022-09-21T09:16:03.505Z,74.25
2022-09-21T09:18:43.725Z,73.00
2022-09-21T09:21:25.905Z,73.50
2022-09-21T09:24:00.313Z,72.34
2022-09-21T09:26:34.288Z,73.74
2022-09-21T09:29:11.945Z,73.02
2022-09-21T09:31:40.951Z,72.88
2022-09-21T09:34:15.403Z,72.44
2022-09-21T09:36:58.346Z,71.57
2022-09-21T09:39:30.252Z,72.29
2022-09-21T09:42:12.274Z,72.83
2022-09-21T09:44:58.999Z,71.66
2022-09-21T09:47:36.710Z,72.53
2022-09-21T09:50:09.583Z,72.15
2022-09-21T09:52:37.792Z,71.56
2022-09-21T09:55:18.193Z,72.66
2022-09-21T09:57:46.105Z,70.32
2022-09-21T10:00:17.641Z,71.03
2022-09-21T10:02:50.264Z,70.44
2022-09-21T10:05:23.723Z,70.61
2022-09-21T10:07:51.738Z,70.42
2022-09-21T10:10:30.148Z,69.45
2022-09-21T10:13:05.652Z,69.55
2022-09-21T10:15:42.614Z,69.22
2022-09-21T10:18:18.454Z,67.34
2022-09-21T10:20:55.346Z,68.63
2022-09-21T10:23:24.989Z,67.10
2022-09-21T10:26:00.251Z,67.36
2022-09-21T10:28:27.953Z,67.02
2022-09-21T10:31:17.293Z,65.86
2022-09-21T10:33:49.494Z,64.17
2022-09-21T10:36:29.507Z,63.42
2022-09-21T10:39:09.546Z,62.45
2022-09-21T10:41:37.980Z,61.22
2022-09-21T10:44:15.401Z,58.04
2022-09-21T10:46:45.150Z,57.86
2022-09-21T10:49:20.103Z,55.51
2022-09-21T10:51:49.585Z,57.40
2022-09-21T10:54:22.521Z,56.94
2022-09-21T10:56:53.730Z,55.40
2022-09-21T10:59:24.709Z,55.62
2022-09-21T11:01:55.445Z,55.60
2022-09-21T11:04:36.954Z,56.72
2022-09-21T11:07:15.006Z,55.02
2022-09-21T11:09:48.948Z,54.52
2022-09-21T11:12:30.077Z,54.55
2022-09-21T11:15:02.343Z,56.09
2022-09-21T11:17:39.198Z,53.98
2022-09-21T11:20:21.624Z,53.30
2022-09-21T11:23:00.741Z,52.06
2022-09-21T11:25:36.238Z,52.74
2022-09-21T11:28:13.293Z,52.72
2022-09-21T11:30:54.430Z,53.28
2022-09-21T11:33:36.427Z,52.17
2022-09-21T11:36:11.967Z,50.66
2022-09-21T11:38:54.564Z,51.30
2022-09-21T11:41:38.934Z,51.05
2022-09-21T11:44:28.807Z,49.91
2022-09-21T11:47:05.678Z,52.12
2022-09-21T11:50:29.215Z,50.41
2022-09-21T11:53:08.707Z,47.03
2022-09-21T11:56:07.012Z,49.12
2022-09-21T11:58:40.633Z,49.50
2022-09-21T12:01:35.840Z,51.91
2022-09-21T12:04:36.741Z,51.97
2022-09-21T12:07:20.707Z,52.63
2022-09-21T12:10:18.973Z,52.26
2022-09-21T12:12:53.849Z,50.20
2022-09-21T12:15:26.889Z,53.18
2022-09-21T12:18:03.391Z,52.29
2022-09-21T12:20:40.633Z,49.50
2022-09-21T12:23:15.336Z,49.80
2022-09-21T12:25:47.183Z,51.99
2022-09-21T12:28:21.613Z,52.34
2022-09-21T12:30:53.889Z,47.81
2022-09-21T12:33:30.426Z,47.19
2022-09-21T12:36:03.308Z,48.61
2022-09-21T12:38:37.976Z,48.87
2022-09-21T12:41:15.117Z,49.02
2022-09-21T12:43:47.118Z,49.93
2022-09-21T12:46:20.567Z,49.95
2022-09-21T12:48:48.374Z,48.29
2022-09-21T12:51:21.086Z,51.06
2022-09-21T12:53:53.351Z,53.04
2022-09-21T12:56:32.668Z,53.11
2022-09-21T12:59:27.129Z,52.01
2022-09-21T13:01:59.435Z,51.28
2022-09-21T13:04:45.108Z,52.17
2022-09-21T13:07:34.354Z,52.91
2022-09-21T13:10:15.941Z,53.25
2022-09-21T13:12:46.224Z,52.83
2022-09-21T13:15:19.179Z,52.96
2022-09-21T13:17:46.859Z,52.83
2022-09-21T13:20:20.815Z,53.13
2022-09-21T13:22:49.228Z,53.24
2022-09-21T13:25:23.734Z,53.95
2022-09-21T13:27:59.508Z,52.05
2022-09-21T13:30:36.935Z,52.44
2022-09-21T13:33:05.759Z,53.02
2022-09-21T13:36:01.354Z,51.17
2022-09-21T13:38:31.408Z,54.83
2022-09-21T13:41:02.204Z,56.85
2022-09-21T13:43:46.540Z,56.06
2022-09-21T13:46:53.006Z,55.46
2022-09-21T13:49:38.300Z,55.96
2022-09-21T13:52:15.534Z,56.83
2022-09-21T13:54:50.929Z,55.96
2022-09-21T13:57:26.909Z,54.46
2022-09-21T14:00:07.746Z,54.69
2022-09-21T14:02:40.608Z,53.86
2022-09-21T14:05:20.314Z,53.06
2022-09-21T14:07:55.012Z,52.36
2022-09-21T14:10:23.265Z,53.01
2022-09-21T14:12:52.464Z,54.11
2022-09-21T14:15:37.111Z,52.69
2022-09-21T14:18:35.843Z,52.94
2022-09-21T14:21:15.143Z,52.91
2022-09-21T14:24:17.723Z,53.11
2022-09-21T14:26:53.685Z,53.78
2022-09-21T14:29:28.160Z,54.06
2022-09-21T14:31:58.380Z,54.34
2022-09-21T14:34:34.727Z,54.37
2022-09-21T14:37:04.722Z,54.91
2022-09-21T14:39:37.397Z,54.00
2022-09-21T14:42:14.048Z,55.67
2022-09-21T14:44:43.444Z,56.29
2022-09-21T14:47:28.865Z,56.00
2022-09-21T14:50:17.769Z,56.56
2022-09-21T14:53:03.628Z,54.72
2022-09-21T14:55:43.857Z,53.96
2022-09-21T14:58:44.253Z,54.30
2022-09-21T15:01:23.424Z,55.32
2022-09-21T15:04:08.637Z,55.35
2022-09-21T15:06:42.305Z,56.24
2022-09-21T15:09:37.701Z,57.41
2022-09-21T15:12:13.766Z,58.00
2022-09-21T15:14:44.950Z,58.51
2022-09-21T15:17:24.367Z,58.58
2022-09-21T15:20:10.155Z,57.44
2022-09-21T15:22:43.540Z,57.93
2022-09-21T15:25:13.734Z,58.91
2022-09-21T15:27:44.816Z,59.60
2022-09-21T15:30:21.302Z,59.22
2022-09-21T15:32:54.400Z,59.24
2022-09-21T15:35:24.432Z,60.25
2022-09-21T15:37:52.343Z,59.57
2022-09-21T15:40:22.030Z,60.21
2022-09-21T15:42:59.773Z,58.27
2022-09-21T15:45:29.755Z,59.38
2022-09-21T15:47:58.503Z,58.94
2022-09-21T15:50:27.398Z,59.09
2022-09-21T15:52:58.361Z,58.91
2022-09-21T15:55:25.995Z,59.68
2022-09-21T15:57:55.524Z,59.86
2022-09-21T16:00:28.674Z,60.28
2022-09-21T16:03:05.132Z,59.24
2022-09-21T16:05:42.906Z,59.79
2022-09-21T16:08:34.045Z,59.85
2022-09-21T16:11:18.446Z,60.22
2022-09-21T16:13:58.135Z,59.13
2022-09-21T16:16:26.633Z,59.95
2022-09-21T16:18:57.511Z,60.50
2022-09-21T16:21:27.003Z,60.15
2022-09-21T16:23:56.436Z,60.40
2022-09-21T16:26:27.051Z,60.55
2022-09-21T16:32:27.948Z,62.02
2022-09-21T16:35:17.795Z,61.64
2022-09-21T16:37:45.478Z,61.84
2022-09-21T16:40:12.858Z,62.83
2022-09-21T16:42:40.099Z,62.62
2022-09-21T16:45:18.261Z,63.27
2022-09-21T16:47:45.593Z,64.06
2022-09-21T16:50:17.062Z,64.68
2022-09-21T16:52:44.675Z,64.97
2022-09-21T16:55:12.047Z,65.38
2022-09-21T16:57:39.557Z,66.33
2022-09-21T17:00:11.172Z,66.34
2022-09-21T17:02:38.421Z,67.13
2022-09-21T17:05:06.788Z,67.00
2022-09-21T17:07:35.630Z,66.99
2022-09-21T17:10:13.113Z,67.42
2022-09-21T17:12:40.754Z,68.84
2022-09-21T17:15:12.377Z,69.55
2022-09-21T17:17:39.714Z,69.88
2022-09-21T17:20:17.299Z,69.90
2022-09-21T17:22:46.028Z,69.88
2022-09-21T17:25:13.591Z,70.12
2022-09-21T17:27:40.850Z,69.96
2022-09-21T17:30:12.482Z,70.15
2022-09-21T17:32:40.859Z,70.93
2022-09-21T17:35:15.896Z,70.53
2022-09-21T17:37:45.227Z,70.33
2022-09-21T17:40:14.044Z,70.96
2022-09-21T17:42:44.095Z,70.65
2022-09-21T17:45:24.539Z,70.42
2022-09-21T17:47:52.491Z,70.65
2022-09-21T17:50:24.882Z,70.82
2022-09-21T17:52:57.984Z,70.77
2022-09-21T17:55:26.452Z,70.77
2022-09-21T17:58:05.682Z,70.44
2022-09-21T18:00:48.302Z,71.06
2022-09-21T18:03:20.439Z,71.22
2022-09-21T18:05:48.654Z,71.68
2022-09-21T18:08:18.481Z,71.55
2022-09-21T18:10:54.381Z,70.99
2022-09-21T18:13:30.621Z,70.11
2022-09-21T18:16:11.679Z,70.11
2022-09-21T18:18:44.537Z,69.75
2022-09-21T18:21:18.559Z,69.73
2022-09-21T18:24:10.355Z,70.04
2022-09-21T18:26:38.158Z,69.79
2022-09-21T18:29:28.494Z,70.55
2022-09-21T18:32:07.088Z,70.44
2022-09-21T18:34:54.902Z,70.93
2022-09-21T18:37:32.845Z,71.02
2022-09-21T18:40:11.270Z,71.50
2022-09-21T18:42:46.974Z,71.71
2022-09-21T18:45:20.890Z,71.26
2022-09-21T18:48:08.662Z,71.39
2022-09-21T18:50:42.368Z,71.38
2022-09-21T18:53:20.818Z,71.26
2022-09-21T18:55:50.885Z,71.46
2022-09-21T18:58:18.794Z,71.68
2022-09-21T19:00:47.027Z,71.48
2022-09-21T19:03:18.257Z,71.98
2022-09-21T19:06:11.117Z,72.19
2022-09-21T19:08:49.447Z,72.50
2022-09-21T19:11:36.911Z,73.73
2022-09-21T19:14:12.201Z,73.31
2022-09-21T19:16:51.933Z,73.25
2022-09-21T19:19:34.055Z,73.70
2022-09-21T19:22:07.069Z,74.16
2022-09-21T19:24:43.418Z,74.61
2022-09-21T19:27:21.986Z,74.21
2022-09-21T19:30:02.175Z,74.29
2022-09-21T19:32:36.162Z,74.63
2022-09-21T19:35:18.107Z,75.01
2022-09-21T19:37:45.923Z,75.39
2022-09-21T19:40:14.751Z,75.35
2022-09-21T19:43:03.074Z,75.71
2022-09-21T19:45:42.256Z,75.96
2022-09-21T19:48:13.816Z,76.56
2022-09-21T19:50:46.552Z,77.14
2022-09-21T19:53:14.723Z,76.50
2022-09-21T19:55:44.105Z,77.12
2022-09-21T19:58:13.487Z,77.15
2022-09-21T20:00:42.236Z,77.23
2022-09-21T20:03:14.114Z,77.26
2022-09-21T20:05:50.064Z,77.67
2022-09-21T20:08:22.971Z,77.86
2022-09-21T20:11:04.396Z,78.48
2022-09-21T20:13:46.393Z,78.95
2022-09-21T20:16:30.863Z,79.00
2022-09-21T20:19:06.998Z,78.76
2022-09-21T20:21:38.939Z,77.97
2022-09-21T20:24:17.931Z,77.95
2022-09-21T20:26:49.039Z,77.68
2022-09-21T20:29:18.405Z,77.33
2022-09-21T20:31:46.732Z,77.63
2022-09-21T20:34:15.501Z,77.83
2022-09-21T20:36:42.729Z,77.69
2022-09-21T20:39:10.218Z,77.52
2022-09-21T20:41:37.872Z,77.19
2022-09-21T20:46:51.917Z,76.66
2022-09-21T20:49:19.258Z,77.30
2022-09-21T20:51:46.609Z,77.53
2022-09-21T20:54:14.578Z,77.56
2022-09-21T20:56:42.007Z,77.66
2022-09-21T20:59:09.256Z,77.18
2022-09-21T21:01:36.839Z,77.42
2022-09-21T21:04:05.646Z,77.58
2022-09-21T21:06:33.171Z,77.77
2022-09-21T21:09:01.048Z,77.83
2022-09-21T21:11:28.529Z,77.64
2022-09-21T21:13:56.254Z,77.04
2022-09-21T21:16:24.478Z,76.75
2022-09-21T21:18:52.742Z,76.65
2022-09-21T21:21:21.424Z,76.30
2022-09-21T21:26:57.765Z,76.60
2022-09-21T21:29:22.141Z,76.38
2022-09-21T21:31:50.224Z,75.59
2022-09-21T21:34:18.258Z,75.54
2022-09-21T21:36:47.800Z,76.11
2022-09-21T21:39:15.080Z,76.15
2022-09-21T21:41:43.535Z,76.51
2022-09-21T21:44:11.853Z,76.49
2022-09-21T21:46:39.198Z,76.49
2022-09-21T21:49:06.563Z,76.02
2022-09-21T21:51:34.372Z,76.39
2022-09-21T21:54:03.308Z,77.14
2022-09-21T21:56:30.859Z,76.86
2022-09-21T21:58:58.456Z,76.73
2022-09-21T22:01:27.687Z,76.35
2022-09-21T22:03:56.797Z,75.96
2022-09-21T22:06:25.282Z,75.61
2022-09-21T22:08:52.870Z,75.06
2022-09-21T22:11:21.613Z,75.33
2022-09-21T22:13:49.431Z,75.48
2022-09-21T22:16:23.665Z,75.51
2022-09-21T22:18:52.902Z,75.67
2022-09-21T22:21:21.901Z,76.17
2022-09-21T22:23:52.592Z,75.85
2022-09-21T22:26:22.305Z,75.42
2022-09-21T22:28:51.760Z,75.49
2022-09-21T22:31:21.372Z,74.79
2022-09-21T22:33:49.375Z,74.67
2022-09-21T22:36:18.779Z,74.88
2022-09-21T22:38:46.858Z,75.06
2022-09-21T22:41:16.497Z,75.10
2022-09-21T22:43:45.987Z,75.19
2022-09-21T22:46:14.471Z,75.18
2022-09-21T22:48:42.414Z,75.01
2022-09-21T22:51:09.777Z,74.53
2022-09-21T22:53:37.179Z,73.84
2022-09-21T22:56:08.841Z,74.50
2022-09-21T22:58:39.688Z,75.13
